KCAO/CAO METAR and TAF weather

Enter ICAO airport designator
Station Type Date Time Source
KCAO METAR 2018/10/19 14:55 UTC NOAA

KCAO 191455Z AUTO 33015G22KT 10SM CLR 13/02 A3027 RMK AO2 SLP226 T01330022 53021


Station Type Date Time Source
KCAO Decoded METAR 2018/10/19 14:55 UTC NOAA

CLAYTON MUNICIPAL AIRPARK, NM, United States (KCAO) 36-27N 103-09W 1514M
Oct 19, 2018 - 10:55 AM EDT / 2018.10.19 1455 UTC
Wind: from the NNW (330 degrees) at 17 MPH (15 KT) gusting to 25 MPH (22 KT):0
Visibility: 10 mile(s):0
Sky conditions: clear
Temperature: 55.9 F (13.3 C)
Dew Point: 36.0 F (2.2 C)
Relative Humidity: 46%
Pressure (altimeter): 30.27 in. Hg (1025 hPa)
Pressure tendency: 0.06 inches (2.1 hPa) higher than three hours ago
ob: KCAO 191455Z AUTO 33015G22KT 10SM CLR 13/02 A3027 RMK AO2 SLP226 T01330022 53021
cycle: 15

Station Type Date Time Source
KCAO TAF UTC NOAA

Error!


Example: see airport list